createdAt,value
2018-03-16T00:00:42.308Z,998.5
2018-03-16T00:05:42.020Z,998.5
2018-03-16T00:10:43.548Z,998.6
2018-03-16T00:15:41.470Z,998.6
2018-03-16T00:20:41.634Z,998.6
2018-03-16T00:25:41.276Z,998.6
2018-03-16T00:30:41.607Z,998.6
2018-03-16T00:35:41.700Z,998.7
2018-03-16T00:40:41.813Z,998.7
2018-03-16T00:45:41.245Z,998.8
2018-03-16T00:50:41.255Z,998.8
2018-03-16T00:55:42.006Z,998.8
2018-03-16T01:00:41.396Z,998.9
2018-03-16T01:05:42.049Z,998.9
2018-03-16T01:11:14.887Z,998.9
2018-03-16T01:15:41.724Z,998.9
2018-03-16T01:20:43.129Z,998.9
2018-03-16T01:26:22.480Z,998.9
2018-03-16T01:30:42.569Z,998.9
2018-03-16T01:35:43.415Z,999
2018-03-16T01:41:06.105Z,999
2018-03-16T01:45:44.322Z,999
2018-03-16T01:50:41.809Z,999
2018-03-16T01:55:45.319Z,998.9
2018-03-16T02:00:42.112Z,999
2018-03-16T02:05:56.728Z,998.9
2018-03-16T02:10:42.297Z,999
2018-03-16T02:15:42.425Z,999.1
2018-03-16T02:20:41.919Z,999
2018-03-16T02:25:41.694Z,999.1
2018-03-16T02:31:03.921Z,999.1
2018-03-16T02:35:41.531Z,999.2
2018-03-16T02:40:42.416Z,999.2
2018-03-16T02:45:43.582Z,999.1
2018-03-16T02:50:43.997Z,999.2
2018-03-16T02:55:41.693Z,999.3
2018-03-16T03:01:17.175Z,999.2
2018-03-16T03:05:41.500Z,999.2
2018-03-16T03:10:42.459Z,999.2
2018-03-16T03:20:09.271Z,999.3
2018-03-16T03:22:47.290Z,999.3
2018-03-16T03:25:41.330Z,999.3
2018-03-16T03:30:41.861Z,999.3
2018-03-16T03:35:41.845Z,999.3
2018-03-16T03:40:43.996Z,999.4
2018-03-16T03:45:43.385Z,999.4
2018-03-16T03:50:41.621Z,999.5
2018-03-16T03:56:35.813Z,999.6
2018-03-16T04:00:42.049Z,999.6
2018-03-16T04:05:42.033Z,999.7
2018-03-16T04:11:08.394Z,999.8
2018-03-16T04:15:41.499Z,999.9
2018-03-16T04:20:41.924Z,999.9
2018-03-16T04:25:41.269Z,999.9
2018-03-16T04:30:41.194Z,999.9
2018-03-16T04:35:41.096Z,999.9
2018-03-16T04:40:41.539Z,999.9
2018-03-16T04:45:40.860Z,1000
2018-03-16T04:50:40.862Z,1000
2018-03-16T04:55:41.159Z,1000
2018-03-16T05:00:41.187Z,1000.1
2018-03-16T05:05:41.250Z,1000.1
2018-03-16T05:10:43.164Z,1000.2
2018-03-16T05:15:44.621Z,1000.3
2018-03-16T05:20:44.353Z,1000.4
2018-03-16T05:25:43.634Z,1000.4
2018-03-16T05:30:43.859Z,1000.5
2018-03-16T05:35:41.142Z,1000.5
2018-03-16T05:40:42.823Z,1000.5
2018-03-16T05:45:44.057Z,1000.5
2018-03-16T05:50:42.366Z,1000.6
2018-03-16T05:55:41.331Z,1000.6
2018-03-16T06:00:42.011Z,1000.7
2018-03-16T06:05:43.762Z,1000.8
2018-03-16T06:10:42.585Z,1000.8
2018-03-16T06:15:43.081Z,1000.9
2018-03-16T06:20:41.257Z,1001
2018-03-16T06:25:42.414Z,1001
2018-03-16T06:30:44.258Z,1001.1
2018-03-16T06:35:42.361Z,1001.1
2018-03-16T06:40:43.668Z,1001.2
2018-03-16T06:45:57.614Z,1001.3
2018-03-16T06:50:42.862Z,1001.3
2018-03-16T06:55:41.103Z,1001.3
2018-03-16T07:00:41.957Z,1001.5
2018-03-16T07:05:43.051Z,1001.5
2018-03-16T07:10:41.192Z,1001.6
2018-03-16T07:15:42.256Z,1001.7
2018-03-16T07:20:41.746Z,1001.8
2018-03-16T07:25:57.749Z,1001.8
2018-03-16T07:30:41.158Z,1001.9
2018-03-16T07:35:41.383Z,1002
2018-03-16T07:40:58.652Z,1002.1
2018-03-16T07:45:41.853Z,1002.2
2018-03-16T07:50:41.478Z,1002.2
2018-03-16T07:55:41.249Z,1002.2
2018-03-16T08:00:41.792Z,1002.2
2018-03-16T08:05:42.588Z,1002.4
2018-03-16T08:10:44.426Z,1002.4
2018-03-16T08:15:41.745Z,1002.5
2018-03-16T08:20:42.068Z,1002.6
2018-03-16T08:25:41.296Z,1002.6
2018-03-16T08:30:41.322Z,1002.6
2018-03-16T08:35:41.001Z,1002.7
2018-03-16T08:40:41.431Z,1002.7
2018-03-16T08:45:41.053Z,1002.8
2018-03-16T08:50:42.091Z,1002.8
2018-03-16T08:55:42.193Z,1002.8
2018-03-16T09:00:41.593Z,1003
2018-03-16T09:05:42.602Z,1002.9
2018-03-16T09:10:41.784Z,1002.9
2018-03-16T09:15:41.172Z,1003
2018-03-16T09:20:41.274Z,1003.1
2018-03-16T09:25:41.081Z,1003.1
2018-03-16T09:30:41.900Z,1003.1
2018-03-16T09:35:42.211Z,1003.2
2018-03-16T09:40:42.582Z,1003.2
2018-03-16T09:45:42.115Z,1003.2
2018-03-16T09:50:41.399Z,1003.3
2018-03-16T09:55:41.602Z,1003.3
2018-03-16T10:00:41.421Z,1003.4
2018-03-16T10:05:44.345Z,1003.5
2018-03-16T10:10:41.252Z,1003.5
2018-03-16T10:15:42.138Z,1003.5
2018-03-16T10:20:42.544Z,1003.6
2018-03-16T10:25:41.086Z,1003.7
2018-03-16T10:30:40.661Z,1003.7
2018-03-16T10:35:41.810Z,1003.7
2018-03-16T10:40:47.083Z,1003.9
2018-03-16T10:45:47.984Z,1003.9
2018-03-16T10:50:40.750Z,1004
2018-03-16T10:55:41.881Z,1004.2
2018-03-16T11:00:55.762Z,1004.2
2018-03-16T11:05:41.152Z,1004.2
2018-03-16T11:10:43.617Z,1004.3
2018-03-16T11:15:59.306Z,1004.3
2018-03-16T11:20:42.728Z,1004.4
2018-03-16T11:25:41.101Z,1004.4
2018-03-16T11:30:46.740Z,1004.4
2018-03-16T11:35:41.031Z,1004.4
2018-03-16T11:40:41.133Z,1004.5
2018-03-16T11:45:56.994Z,1004.5
2018-03-16T11:50:45.792Z,1004.5
2018-03-16T11:55:41.768Z,1004.6
2018-03-16T12:00:52.624Z,1004.7
2018-03-16T12:05:41.111Z,1004.7
2018-03-16T12:10:42.106Z,1004.8
2018-03-16T12:15:47.907Z,1004.7
2018-03-16T12:20:41.433Z,1004.8
2018-03-16T12:25:42.556Z,1004.8
2018-03-16T12:30:46.380Z,1004.9
2018-03-16T12:35:41.322Z,1005
2018-03-16T12:40:41.350Z,1005
2018-03-16T12:45:46.261Z,1005.1
2018-03-16T12:50:40.610Z,1005
2018-03-16T12:55:42.648Z,1005.1
2018-03-16T13:00:41.310Z,1005.1
2018-03-16T13:05:42.194Z,1005.2
2018-03-16T13:10:42.354Z,1005.2
2018-03-16T13:15:41.679Z,1005.3
2018-03-16T13:20:41.638Z,1005.3
2018-03-16T13:25:42.482Z,1005.3
2018-03-16T13:30:40.609Z,1005.3
2018-03-16T13:35:40.962Z,1005.3
2018-03-16T13:40:50.242Z,1005.3
2018-03-16T13:45:43.631Z,1005.4
2018-03-16T13:50:41.477Z,1005.4
2018-03-16T13:55:41.194Z,1005.5
2018-03-16T14:00:57.651Z,1005.5
2018-03-16T14:05:41.921Z,1005.6
2018-03-16T14:10:42.154Z,1005.8
2018-03-16T14:15:48.708Z,1005.8
2018-03-16T14:20:40.529Z,1005.8
2018-03-16T14:25:42.175Z,1005.8
2018-03-16T14:30:48.039Z,1005.9
2018-03-16T14:35:40.707Z,1005.9
2018-03-16T14:40:41.627Z,1006
2018-03-16T14:45:45.674Z,1006.1
2018-03-16T14:50:40.574Z,1006.1
2018-03-16T14:55:40.541Z,1006.1
2018-03-16T15:00:46.717Z,1006.2
2018-03-16T15:05:41.054Z,1006.2
2018-03-16T15:10:41.044Z,1006.2
2018-03-16T15:15:45.381Z,1006.3
2018-03-16T15:20:42.449Z,1006.2
2018-03-16T15:25:41.675Z,1006.2
2018-03-16T15:30:51.099Z,1006.3
2018-03-16T15:35:41.604Z,1006.4
2018-03-16T15:40:41.209Z,1006.4
2018-03-16T15:45:48.286Z,1006.4
2018-03-16T15:50:40.447Z,1006.5
2018-03-16T15:55:40.769Z,1006.5
2018-03-16T16:00:48.827Z,1006.5
2018-03-16T16:05:40.540Z,1006.5
2018-03-16T16:10:43.654Z,1006.5
2018-03-16T16:15:53.900Z,1006.5
2018-03-16T16:20:40.566Z,1006.6
2018-03-16T16:25:41.646Z,1006.7
2018-03-16T16:30:58.021Z,1006.8
2018-03-16T16:35:40.894Z,1006.9
2018-03-16T16:40:59.688Z,1006.9
2018-03-16T16:45:47.114Z,1007
2018-03-16T16:50:40.040Z,1007.1
2018-03-16T16:55:40.846Z,1007.1
2018-03-16T17:00:51.679Z,1007.2
2018-03-16T17:05:39.947Z,1007.4
2018-03-16T17:10:40.643Z,1007.5
2018-03-16T17:15:54.776Z,1007.5
2018-03-16T17:20:40.349Z,1007.5
2018-03-16T17:25:40.448Z,1007.7
2018-03-16T17:30:49.146Z,1007.7
2018-03-16T17:35:41.190Z,1007.8
2018-03-16T17:40:40.660Z,1007.9
2018-03-16T17:45:50.882Z,1007.9
2018-03-16T17:50:42.174Z,1007.9
2018-03-16T17:55:40.651Z,1008
2018-03-16T18:01:49.921Z,1008.1
2018-03-16T18:05:40.390Z,1008.2
2018-03-16T18:10:42.432Z,1008.2
2018-03-16T18:16:12.575Z,1008.3
2018-03-16T18:20:45.862Z,1008.3
2018-03-16T18:25:40.812Z,1008.4
2018-03-16T18:30:41.111Z,1008.5
2018-03-16T18:35:42.957Z,1008.5
2018-03-16T18:40:40.941Z,1008.5
2018-03-16T18:45:41.432Z,1008.6
2018-03-16T18:50:41.419Z,1008.7
2018-03-16T18:55:40.126Z,1008.8
2018-03-16T19:00:39.859Z,1008.7
2018-03-16T19:05:41.004Z,1008.8
2018-03-16T19:10:40.181Z,1008.7
2018-03-16T19:15:40.465Z,1008.7
2018-03-16T19:20:40.662Z,1008.8
2018-03-16T19:25:40.278Z,1008.7
2018-03-16T19:30:40.574Z,1008.7
2018-03-16T19:35:54.494Z,1008.8
2018-03-16T19:40:40.285Z,1008.8
2018-03-16T19:45:42.749Z,1008.8
2018-03-16T19:50:40.592Z,1008.8
2018-03-16T19:55:40.820Z,1008.9
2018-03-16T20:00:40.682Z,1009
2018-03-16T20:05:40.602Z,1009.1
2018-03-16T20:10:43.202Z,1009.2
2018-03-16T20:15:40.017Z,1009.3
2018-03-16T20:20:40.709Z,1009.3
2018-03-16T20:25:42.394Z,1009.4
2018-03-16T20:30:40.135Z,1009.4
2018-03-16T20:35:40.336Z,1009.6
2018-03-16T20:40:40.080Z,1009.5
2018-03-16T20:45:40.246Z,1009.5
2018-03-16T20:50:40.332Z,1009.7
2018-03-16T20:55:40.161Z,1009.6
2018-03-16T21:00:39.969Z,1009.7
2018-03-16T21:05:40.904Z,1009.7
2018-03-16T21:10:39.966Z,1009.7
2018-03-16T21:15:40.018Z,1009.7
2018-03-16T21:20:39.807Z,1009.8
2018-03-16T21:25:40.380Z,1009.9
2018-03-16T21:30:40.503Z,1009.9
2018-03-16T21:35:41.512Z,1009.9
2018-03-16T21:40:41.143Z,1009.9
2018-03-16T21:45:40.932Z,1010
2018-03-16T21:50:48.493Z,1009.9
2018-03-16T21:55:39.798Z,1010
2018-03-16T22:00:41.018Z,1010
2018-03-16T22:05:45.122Z,1009.8
2018-03-16T22:10:40.464Z,1010.1
2018-03-16T22:15:40.589Z,1010
2018-03-16T22:20:52.140Z,1009.9
2018-03-16T22:25:39.475Z,1010
2018-03-16T22:30:39.729Z,1010
2018-03-16T22:35:45.458Z,1010
2018-03-16T22:40:42.740Z,1009.9
2018-03-16T22:45:40.750Z,1010
2018-03-16T22:50:58.976Z,1010
2018-03-16T22:55:40.515Z,1010.1
2018-03-16T23:00:41.020Z,1010.1
2018-03-16T23:05:56.080Z,1010.1
2018-03-16T23:10:39.450Z,1010.1
2018-03-16T23:15:40.029Z,1010
2018-03-16T23:20:51.120Z,1009.9
2018-03-16T23:25:40.262Z,1010.1
2018-03-16T23:30:39.948Z,1010
2018-03-16T23:35:54.651Z,1009.9
2018-03-16T23:40:39.523Z,1010.1
2018-03-16T23:45:39.940Z,1010.1
2018-03-16T23:51:33.289Z,1010.2
2018-03-16T23:55:39.634Z,1010.1
